Time;durP1;ratioP1;P1;durP2;ratioP2;P2;SDS_P1;SDS_P2;PMS_P1;PMS_P2;Temp;Humidity;BMP_temperature;BMP_pressure;BME280_temperature;BME280_humidity;BME280_pressure;Samples;Min_cycle;Max_cycle;Signal;HPM_P1;HPM_P2
2023/07/07 00:00:19;;;;;;;11.10;6.80;;;;;;;13.95;63.32;100669.98;1773851;80;25400;-71
2023/07/07 00:02:47;;;;;;;11.05;6.90;;;;;;;13.92;63.23;100664.62;1795858;79;25595;-70
2023/07/07 00:05:14;;;;;;;9.65;7.20;;;;;;;13.89;63.22;100676.13;1775307;80;25581;-68
2023/07/07 00:07:41;;;;;;;10.80;6.45;;;;;;;13.85;63.44;100667.60;1789683;80;27390;-70
2023/07/07 00:10:09;;;;;;;13.32;7.40;;;;;;;13.81;63.39;100671.53;1774243;80;25750;-70
2023/07/07 00:12:36;;;;;;;9.48;6.22;;;;;;;13.78;63.69;100679.75;1792443;80;25603;-70
2023/07/07 00:15:06;;;;;;;8.60;6.53;;;;;;;13.76;64.05;100678.49;1770057;80;25483;-70
2023/07/07 00:17:32;;;;;;;11.43;7.22;;;;;;;13.74;63.89;100671.19;1792587;80;25614;-70
2023/07/07 00:20:03;;;;;;;12.65;7.10;;;;;;;13.74;64.32;100677.98;1770049;81;27499;-69
2023/07/07 00:22:27;;;;;;;12.15;6.53;;;;;;;13.72;64.35;100676.16;1792136;79;34686;-70
2023/07/07 00:24:53;;;;;;;11.15;6.90;;;;;;;13.69;64.56;100674.08;1770122;80;25353;-71
2023/07/07 00:27:20;;;;;;;13.62;7.37;;;;;;;13.64;64.82;100677.20;1792471;80;25786;-71
2023/07/07 00:29:47;;;;;;;9.03;7.03;;;;;;;13.63;64.83;100673.45;1770086;81;25377;-69
2023/07/07 00:32:13;;;;;;;11.70;7.00;;;;;;;13.62;64.93;100676.73;1771097;80;27536;-69
2023/07/07 00:34:39;;;;;;;9.25;6.90;;;;;;;13.59;65.09;100679.30;1769977;80;25424;-69
2023/07/07 00:37:05;;;;;;;9.35;7.15;;;;;;;13.57;64.93;100679.61;1792342;80;25413;-70
2023/07/07 00:39:32;;;;;;;10.45;7.15;;;;;;;13.54;64.93;100680.24;1770030;81;26015;-71
2023/07/07 00:41:58;;;;;;;13.18;7.08;;;;;;;13.51;65.10;100689.03;1792391;80;25448;-71
2023/07/07 00:44:58;;;;;;;12.05;7.40;;;;;;;13.49;65.37;100685.05;1770057;81;27536;-71
2023/07/07 00:47:25;;;;;;;11.48;7.60;;;;;;;13.47;65.33;100689.44;1726789;82;25769;-70
2023/07/07 00:49:51;;;;;;;16.17;7.22;;;;;;;13.43;65.49;100685.20;1672003;85;25521;-71
2023/07/07 00:52:18;;;;;;;10.80;7.45;;;;;;;13.42;65.41;100683.59;1669929;85;25666;-71
2023/07/07 00:54:45;;;;;;;10.93;7.55;;;;;;;13.40;65.73;100687.19;1670507;85;25647;-71
2023/07/07 00:57:12;;;;;;;12.30;6.87;;;;;;;13.38;65.97;100683.17;1670466;85;27668;-69
2023/07/07 00:59:43;;;;;;;13.83;7.70;;;;;;;13.39;66.16;100686.15;1670399;85;25746;-70
2023/07/07 01:02:24;;;;;;;13.00;7.78;;;;;;;13.38;66.18;100686.72;1670484;85;25563;-71
2023/07/07 01:04:48;;;;;;;10.78;7.92;;;;;;;13.34;66.61;100684.37;1669207;85;25562;-71
2023/07/07 01:07:23;;;;;;;12.70;7.37;;;;;;;13.29;66.54;100686.42;1670523;85;25540;-71
2023/07/07 01:09:50;;;;;;;8.70;7.08;;;;;;;13.26;66.54;100691.37;1668830;85;27727;-69
2023/07/07 01:12:17;;;;;;;10.05;7.40;;;;;;;13.26;66.65;100685.95;1674997;85;25804;-71
2023/07/07 01:14:47;;;;;;;10.32;7.22;;;;;;;13.28;66.76;100693.78;1675348;85;25625;-69
2023/07/07 01:17:42;;;;;;;10.65;7.35;;;;;;;13.28;67.10;100696.50;1675279;85;25731;-70
2023/07/07 01:20:32;;;;;;;12.80;7.28;;;;;;;13.26;67.13;100694.63;1675390;85;25452;-72
2023/07/07 01:23:07;;;;;;;;;;;;;;;13.26;67.15;100696.81;1661175;84;27624;-72
2023/07/07 01:26:04;;;;;;;11.15;7.78;;;;;;;13.28;67.52;100695.14;1700855;83;25580;-72
2023/07/07 01:28:45;;;;;;;12.65;7.87;;;;;;;13.26;67.30;100691.92;1714075;82;25553;-71
2023/07/07 01:31:22;;;;;;;12.00;7.83;;;;;;;13.23;67.48;100691.22;1717204;83;25521;-72
2023/07/07 01:33:50;;;;;;;12.00;7.95;;;;;;;13.20;67.35;100687.77;1737182;82;25707;-69
2023/07/07 01:36:17;;;;;;;13.05;7.85;;;;;;;13.19;67.41;100688.88;1706147;84;27483;-69
2023/07/07 01:38:47;;;;;;;13.05;7.87;;;;;;;13.17;67.48;100691.11;1717113;83;25658;-69
2023/07/07 01:41:27;;;;;;;9.13;7.20;;;;;;;13.17;67.68;100692.47;1717676;83;25446;-70
2023/07/07 01:44:22;;;;;;;12.50;8.10;;;;;;;13.17;67.87;100693.83;1724172;83;26355;-71
2023/07/07 01:47:18;;;;;;;11.43;7.90;;;;;;;13.18;68.00;100695.45;1708815;82;25899;-71
2023/07/07 01:50:22;;;;;;;12.55;7.62;;;;;;;13.19;68.12;100695.09;1769263;81;28030;-71
2023/07/07 01:52:55;;;;;;;12.47;8.80;;;;;;;13.21;68.31;100694.78;1768825;81;25633;-71
2023/07/07 01:55:47;;;;;;;11.70;7.83;;;;;;;13.21;68.23;100694.25;1774329;80;25520;-71
2023/07/07 01:58:17;;;;;;;12.07;7.58;;;;;;;13.22;68.31;100703.19;1797470;77;25566;-71
2023/07/07 02:00:49;;;;;;;10.53;7.25;;;;;;;13.24;68.75;100704.45;1847669;77;25502;-70
2023/07/07 02:03:19;;;;;;;15.28;7.97;;;;;;;13.28;69.09;100708.72;1847646;76;27508;-70
2023/07/07 02:05:47;;;;;;;12.58;7.33;;;;;;;13.32;68.96;100706.20;1847511;77;25592;-70
2023/07/07 02:08:15;;;;;;;13.62;7.62;;;;;;;13.36;68.93;100707.16;1847558;77;25407;-69
2023/07/07 02:10:42;;;;;;;9.48;6.90;;;;;;;13.37;68.74;100708.77;1847347;77;27684;-69
2023/07/07 02:13:08;;;;;;;9.90;7.37;;;;;;;13.36;68.83;100707.94;1847599;77;25588;-69
2023/07/07 02:15:34;;;;;;;12.03;7.90;;;;;;;13.35;68.66;100712.33;1847584;76;27512;-69
2023/07/07 02:18:03;;;;;;;11.60;7.17;;;;;;;13.34;68.68;100720.27;1847563;77;25423;-69
2023/07/07 02:20:32;;;;;;;13.57;8.23;;;;;;;13.34;68.77;100718.34;1847857;76;25542;-69
2023/07/07 02:22:59;;;;;;;13.55;7.75;;;;;;;13.33;68.89;100719.47;1836102;77;28627;-69
2023/07/07 02:25:25;;;;;;;12.05;8.63;;;;;;;13.31;68.75;100719.50;1847622;76;25535;-70
2023/07/07 02:27:51;;;;;;;10.40;7.53;;;;;;;13.29;68.88;100729.89;1847543;76;29595;-69
2023/07/07 02:30:17;;;;;;;13.03;7.67;;;;;;;13.23;68.50;100719.17;1847377;77;25585;-70
2023/07/07 02:32:43;;;;;;;12.80;9.03;;;;;;;13.20;68.83;100718.44;1847496;77;25566;-70
2023/07/07 02:35:13;;;;;;;17.82;9.45;;;;;;;13.21;68.82;100726.02;1847458;77;25617;-70
2023/07/07 02:37:39;;;;;;;23.47;13.20;;;;;;;13.20;68.97;100721.16;1847764;77;25350;-70
2023/07/07 02:40:09;;;;;;;14.50;9.15;;;;;;;13.19;69.26;100729.05;1847535;76;27496;-70
2023/07/07 02:42:37;;;;;;;24.07;14.15;;;;;;;13.18;69.42;100731.55;1847487;76;25420;-71
2023/07/07 02:45:03;;;;;;;14.68;10.32;;;;;;;13.15;69.30;100736.81;1847561;76;25430;-71
2023/07/07 02:47:30;;;;;;;12.18;9.23;;;;;;;13.16;69.80;100735.67;1835970;77;25934;-70
2023/07/07 02:49:56;;;;;;;21.48;12.98;;;;;;;13.16;69.75;100739.21;1836015;77;25391;-70
2023/07/07 02:52:22;;;;;;;11.53;8.60;;;;;;;13.19;70.02;100737.77;1847543;77;28207;-70
2023/07/07 02:54:49;;;;;;;13.88;9.40;;;;;;;13.21;69.96;100747.75;1847466;77;25415;-69
2023/07/07 02:57:15;;;;;;;16.12;9.13;;;;;;;13.22;70.13;100737.14;1847552;76;25458;-69
2023/07/07 02:59:42;;;;;;;16.52;10.60;;;;;;;13.23;70.58;100740.11;1847474;77;26186;-69
2023/07/07 03:02:08;;;;;;;16.20;10.68;;;;;;;13.26;70.59;100742.17;1847549;76;25369;-69
2023/07/07 03:04:35;;;;;;;12.82;9.48;;;;;;;13.31;70.63;100745.31;1847471;76;27533;-69
2023/07/07 03:07:01;;;;;;;12.82;8.23;;;;;;;13.33;70.78;100748.00;1847463;77;25422;-69
2023/07/07 03:09:27;;;;;;;13.95;9.53;;;;;;;13.36;70.75;100748.70;1847473;77;25542;-69
2023/07/07 03:11:53;;;;;;;13.68;10.32;;;;;;;13.40;70.78;100750.22;1849268;76;26079;-69
2023/07/07 03:14:21;;;;;;;15.58;9.48;;;;;;;13.45;71.02;100752.81;1850757;76;25401;-69
2023/07/07 03:16:51;;;;;;;14.40;8.73;;;;;;;13.50;71.01;100759.46;1850839;77;28141;-69
2023/07/07 03:19:16;;;;;;;15.98;9.20;;;;;;;13.55;71.30;100766.10;1850184;77;25530;-69
2023/07/07 03:21:42;;;;;;;20.30;9.75;;;;;;;13.61;71.50;100767.53;1843115;76;25340;-69
2023/07/07 03:24:08;;;;;;;15.03;8.00;;;;;;;13.71;71.71;100772.44;1841804;77;25499;-69
2023/07/07 03:26:36;;;;;;;13.05;8.45;;;;;;;13.80;72.02;100776.74;1841826;76;25483;-69
2023/07/07 03:29:04;;;;;;;9.63;7.80;;;;;;;13.89;72.14;100775.39;1841896;76;28165;-69
2023/07/07 03:31:32;;;;;;;14.75;8.08;;;;;;;13.97;72.00;100775.95;1841697;77;25715;-69
2023/07/07 03:34:04;;;;;;;14.07;9.10;;;;;;;14.06;71.89;100771.08;1842212;76;25371;-69
2023/07/07 03:36:35;;;;;;;10.63;8.43;;;;;;;14.13;71.79;100777.65;1841905;77;25603;-69
2023/07/07 03:39:03;;;;;;;15.85;9.25;;;;;;;14.21;71.61;100777.39;1841975;77;25523;-69
2023/07/07 03:41:31;;;;;;;14.73;8.90;;;;;;;14.28;71.55;100778.27;1841843;77;27470;-69
2023/07/07 03:43:59;;;;;;;13.62;7.78;;;;;;;14.36;71.45;100781.54;1841747;77;25649;-69
2023/07/07 03:46:29;;;;;;;11.45;8.20;;;;;;;14.42;71.20;100782.16;1841816;77;25419;-70
2023/07/07 03:48:59;;;;;;;13.10;8.58;;;;;;;14.46;71.00;100778.48;1841826;77;25580;-70
2023/07/07 03:51:34;;;;;;;10.40;8.15;;;;;;;14.52;70.95;100784.54;1842041;77;25586;-69
2023/07/07 03:53:55;;;;;;;12.28;8.48;;;;;;;14.57;71.08;100783.01;1840213;77;27943;-68
2023/07/07 03:56:23;;;;;;;11.70;8.03;;;;;;;14.63;71.03;100791.86;1841719;77;25490;-68
2023/07/07 03:58:51;;;;;;;12.58;7.65;;;;;;;14.69;71.30;100794.08;1830443;77;25642;-68
2023/07/07 04:01:18;;;;;;;13.83;9.03;;;;;;;14.75;71.12;100800.94;1841806;77;25599;-68
2023/07/07 04:03:47;;;;;;;11.68;7.80;;;;;;;14.81;71.27;100805.63;1842404;76;25533;-68
2023/07/07 04:06:16;;;;;;;11.12;8.15;;;;;;;14.87;71.25;100805.70;1832331;77;28669;-68
2023/07/07 04:08:43;;;;;;;14.07;8.38;;;;;;;14.95;71.69;100802.73;1843862;77;25274;-68
2023/07/07 04:11:14;;;;;;;11.33;7.70;;;;;;;15.06;72.05;100797.14;1843367;76;25534;-67
2023/07/07 04:13:45;;;;;;;14.18;7.42;;;;;;;15.21;72.34;100810.00;1841902;77;25669;-67
2023/07/07 04:16:22;;;;;;;11.75;8.40;;;;;;;15.34;72.52;100808.16;1841913;76;25546;-68
2023/07/07 04:18:52;;;;;;;10.93;8.50;;;;;;;15.47;72.43;100806.56;1841874;76;27455;-69
2023/07/07 04:21:26;;;;;;;10.88;7.85;;;;;;;15.61;72.44;100810.98;1841777;77;25593;-67
2023/07/07 04:23:56;;;;;;;11.03;8.00;;;;;;;15.75;72.52;100806.63;1841891;77;25387;-68
2023/07/07 04:26:25;;;;;;;10.70;7.33;;;;;;;15.87;72.34;100806.19;1841866;76;25593;-67
2023/07/07 04:28:53;;;;;;;9.98;7.15;;;;;;;16.01;72.32;100807.28;1841980;77;25530;-66
2023/07/07 04:31:24;;;;;;;11.40;7.70;;;;;;;16.15;72.13;100806.22;1841857;76;27535;-66
2023/07/07 04:33:54;;;;;;;9.83;7.15;;;;;;;16.28;71.91;100807.05;1841891;76;25481;-66
2023/07/07 04:36:22;;;;;;;13.05;7.37;;;;;;;16.37;71.60;100807.21;1841875;77;25367;-63
2023/07/07 04:38:50;;;;;;;13.53;7.47;;;;;;;16.48;71.28;100806.79;1841727;76;25448;-63
2023/07/07 04:41:22;;;;;;;10.65;6.47;;;;;;;16.57;71.02;100811.04;1841881;77;25592;-63
2023/07/07 04:43:52;;;;;;;10.43;6.40;;;;;;;16.63;70.56;100808.88;1841924;76;27393;-63
2023/07/07 04:46:33;;;;;;;13.30;6.55;;;;;;;16.73;70.75;100818.59;1841823;76;25695;-64
2023/07/07 04:49:11;;;;;;;11.00;6.72;;;;;;;16.83;70.70;100820.89;1841850;77;25566;-65
2023/07/07 04:51:37;;;;;;;10.55;6.30;;;;;;;16.93;70.66;100822.42;1839565;77;25514;-65
2023/07/07 04:54:08;;;;;;;11.88;5.67;;;;;;;17.05;70.52;100828.48;1841860;76;25549;-65
2023/07/07 04:56:34;;;;;;;10.38;6.15;;;;;;;17.15;70.14;100825.30;1841863;77;27506;-65
2023/07/07 04:59:03;;;;;;;8.90;5.70;;;;;;;17.24;69.98;100821.09;1841741;76;25931;-65
2023/07/07 05:01:31;;;;;;;10.65;6.30;;;;;;;17.35;69.67;100833.17;1841976;77;30042;-65
2023/07/07 05:04:02;;;;;;;10.25;5.83;;;;;;;17.44;69.35;100824.28;1841767;77;25619;-64
2023/07/07 05:06:34;;;;;;;10.70;6.05;;;;;;;17.55;69.34;100825.42;1841882;77;25542;-65
2023/07/07 05:09:03;;;;;;;10.70;6.30;;;;;;;17.68;69.22;100828.13;1841937;76;27467;-58
2023/07/07 05:11:34;;;;;;;8.08;5.92;;;;;;;17.81;69.37;100824.80;1841616;77;25570;-59
2023/07/07 05:14:03;;;;;;;10.80;5.62;;;;;;;17.95;68.96;100825.27;1841034;76;25640;-59
2023/07/07 05:16:38;;;;;;;11.57;5.55;;;;;;;18.11;68.67;100828.06;1841779;77;26086;-58
2023/07/07 05:19:07;;;;;;;12.60;5.97;;;;;;;18.22;68.22;100827.80;1841875;77;25611;-59
2023/07/07 05:21:35;;;;;;;8.53;5.05;;;;;;;18.33;68.17;100822.62;1842005;77;27442;-59
2023/07/07 05:24:03;;;;;;;9.58;5.62;;;;;;;18.43;67.92;100827.59;1841670;76;27366;-57
2023/07/07 05:26:30;;;;;;;10.38;5.60;;;;;;;18.56;67.86;100832.45;1841898;77;25591;-57
2023/07/07 05:29:02;;;;;;;6.22;5.12;;;;;;;18.66;67.07;100828.39;1841756;76;25484;-57
2023/07/07 05:31:31;;;;;;;9.58;5.05;;;;;;;18.74;66.55;100832.91;1841896;76;25330;-57
2023/07/07 05:33:59;;;;;;;8.00;5.12;;;;;;;18.87;66.30;100839.16;1842121;76;27704;-58
2023/07/07 05:36:25;;;;;;;8.28;5.03;;;;;;;18.97;65.82;100833.74;1841915;76;25436;-58
2023/07/07 05:38:52;;;;;;;8.20;4.60;;;;;;;19.10;65.53;100831.11;1841947;77;25333;-59
2023/07/07 05:41:21;;;;;;;7.65;4.17;;;;;;;19.24;65.85;100830.70;1841998;77;25534;-59
2023/07/07 05:43:49;;;;;;;6.08;4.62;;;;;;;19.41;65.35;100837.17;1842020;76;25539;-58
2023/07/07 05:46:18;;;;;;;6.58;4.08;;;;;;;19.58;64.19;100840.67;1841929;77;27510;-59
2023/07/07 05:48:45;;;;;;;6.28;5.37;;;;;;;19.72;63.35;100848.45;1842018;76;25586;-57
2023/07/07 05:51:15;;;;;;;9.93;4.87;;;;;;;19.84;63.10;100848.95;1841887;77;25356;-54
2023/07/07 05:53:43;;;;;;;8.70;4.47;;;;;;;19.96;62.23;100848.81;1841970;77;26150;-58
2023/07/07 05:56:17;;;;;;;6.72;4.40;;;;;;;20.05;61.38;100849.39;1842140;76;25398;-60
2023/07/07 05:58:47;;;;;;;5.28;4.10;;;;;;;20.16;60.96;100842.77;1842451;76;27938;-59
2023/07/07 06:01:15;;;;;;;8.80;4.42;;;;;;;20.31;60.76;100845.20;1841962;77;25525;-60
2023/07/07 06:03:45;;;;;;;8.55;4.00;;;;;;;20.44;60.84;100835.66;1842023;76;25429;-59
2023/07/07 06:06:14;;;;;;;7.72;4.80;;;;;;;20.59;60.22;100844.19;1841955;77;25592;-60
2023/07/07 06:08:42;;;;;;;5.42;4.40;;;;;;;20.74;59.70;100839.20;1842253;77;25613;-60
2023/07/07 06:11:10;;;;;;;5.42;4.10;;;;;;;20.88;59.43;100842.78;1841941;77;27456;-59
2023/07/07 06:13:38;;;;;;;9.65;4.55;;;;;;;21.01;58.81;100845.57;1846277;76;25746;-58
2023/07/07 06:16:07;;;;;;;8.20;4.05;;;;;;;21.12;57.42;100857.34;1847753;77;25513;-58
2023/07/07 06:18:35;;;;;;;8.90;4.35;;;;;;;21.16;57.92;100859.55;1847610;77;25581;-57
2023/07/07 06:21:03;;;;;;;5.50;3.67;;;;;;;21.24;57.14;100863.42;1847391;77;25605;-58
2023/07/07 06:23:32;;;;;;;4.67;3.60;;;;;;;21.34;57.07;100866.73;1847400;77;27457;-57
2023/07/07 06:25:58;;;;;;;4.95;3.95;;;;;;;21.40;56.41;100866.62;1847612;77;25557;-57
2023/07/07 06:28:25;;;;;;;6.22;3.77;;;;;;;21.51;56.26;100862.70;1847601;76;25539;-57
2023/07/07 06:30:54;;;;;;;4.92;3.90;;;;;;;21.59;55.58;100865.20;1847535;76;25401;-58
2023/07/07 06:33:23;;;;;;;6.85;4.30;;;;;;;21.69;55.48;100866.53;1847742;76;25384;-58
2023/07/07 06:35:51;;;;;;;6.72;4.08;;;;;;;21.78;55.59;100872.55;1847736;77;27495;-58
2023/07/07 06:38:19;;;;;;;5.00;4.05;;;;;;;21.95;55.58;100868.45;1847541;77;25395;-56
2023/07/07 06:40:48;;;;;;;4.12;3.55;;;;;;;22.12;54.97;100866.32;1847955;77;25157;-56
2023/07/07 06:43:18;;;;;;;5.53;3.83;;;;;;;22.29;54.50;100869.91;1847652;77;26266;-58
2023/07/07 06:45:51;;;;;;;6.30;4.08;;;;;;;22.41;54.15;100866.67;1847681;76;25435;-58
2023/07/07 06:48:18;;;;;;;4.90;3.67;;;;;;;22.56;53.31;100867.07;1835902;77;29593;-58
2023/07/07 06:50:44;;;;;;;8.50;4.08;;;;;;;22.69;53.26;100872.50;1847469;76;25348;-58
2023/07/07 06:53:10;;;;;;;6.58;4.67;;;;;;;22.85;53.09;100868.72;1847501;77;25608;-58
2023/07/07 06:55:40;;;;;;;8.80;4.72;;;;;;;23.02;52.55;100867.31;1847491;76;25531;-58
2023/07/07 06:58:11;;;;;;;5.85;4.05;;;;;;;23.12;51.46;100865.27;1847629;76;25541;-57
2023/07/07 07:00:40;;;;;;;6.58;3.90;;;;;;;23.22;51.31;100865.94;1847577;76;27562;-58
2023/07/07 07:03:06;;;;;;;8.30;3.77;;;;;;;23.42;51.51;100863.73;1847461;77;25405;-58
2023/07/07 07:05:36;;;;;;;5.08;3.80;;;;;;;23.67;50.96;100863.91;1847519;76;25612;-58
2023/07/07 07:08:05;;;;;;;8.85;4.28;;;;;;;23.90;50.32;100860.12;1847776;77;25703;-59
2023/07/07 07:10:31;;;;;;;6.65;3.83;;;;;;;24.12;49.81;100855.48;1847658;76;25565;-58
2023/07/07 07:12:59;;;;;;;5.40;3.85;;;;;;;24.37;49.60;100865.86;1847472;76;27497;-58
2023/07/07 07:15:26;;;;;;;6.40;4.20;;;;;;;24.64;48.97;100862.22;1847663;77;25519;-57
2023/07/07 07:17:52;;;;;;;5.90;4.03;;;;;;;24.89;48.07;100858.69;1847541;76;25563;-58
2023/07/07 07:20:22;;;;;;;7.75;3.58;;;;;;;25.04;47.52;100860.28;1847542;77;25719;-57
2023/07/07 07:22:49;;;;;;;7.30;3.83;;;;;;;25.24;46.78;100864.06;1847847;76;25593;-58
2023/07/07 07:25:16;;;;;;;7.80;3.98;;;;;;;25.44;47.14;100856.95;1847503;77;27644;-57
2023/07/07 07:27:42;;;;;;;7.12;3.95;;;;;;;25.68;47.06;100862.85;1847417;77;25326;-57
2023/07/07 07:30:15;;;;;;;9.10;4.45;;;;;;;25.95;47.20;100866.55;1847558;76;25416;-57
2023/07/07 07:32:45;;;;;;;7.78;4.60;;;;;;;26.23;46.32;100871.99;1847551;76;26013;-56
2023/07/07 07:35:13;;;;;;;8.40;4.05;;;;;;;26.44;45.28;100862.80;1847583;77;25343;-58
2023/07/07 07:37:41;;;;;;;5.60;4.13;;;;;;;26.93;44.96;100870.45;1847758;76;27461;-57
2023/07/07 07:40:13;;;;;;;3.58;3.10;;;;;;;26.93;44.96;100870.45;1847362;76;26129;-54
2023/07/07 07:42:42;;;;;;;10.70;4.00;;;;;;;27.17;44.12;100874.22;1847536;76;25347;-57
2023/07/07 07:45:17;;;;;;;5.65;4.00;;;;;;;27.50;43.63;100873.38;1847554;77;25577;-58
2023/07/07 07:47:48;;;;;;;7.90;4.12;;;;;;;27.86;42.77;100877.18;1845905;76;25408;-56
2023/07/07 07:50:20;;;;;;;6.03;4.12;;;;;;;28.22;42.43;100877.56;1847672;77;27483;-57
2023/07/07 07:52:46;;;;;;;7.28;4.12;;;;;;;28.58;41.43;100879.12;1847428;77;25508;-55
2023/07/07 07:55:16;;;;;;;6.80;3.35;;;;;;;28.88;40.60;100886.63;1847612;77;25338;-56
2023/07/07 07:57:46;;;;;;;5.40;3.67;;;;;;;29.08;39.41;100880.34;1847605;77;25586;-56
2023/07/07 08:00:18;;;;;;;5.37;3.67;;;;;;;29.31;39.17;100879.61;1847406;76;25530;-56
2023/07/07 08:02:48;;;;;;;7.30;3.70;;;;;;;29.64;38.44;100884.77;1847542;76;27879;-57
2023/07/07 08:05:17;;;;;;;45.65;35.90;;;;;;;29.88;37.66;100878.59;1847343;77;25512;-56
2023/07/07 08:07:43;;;;;;;134.22;110.78;;;;;;;29.99;37.05;100874.97;1847611;77;25423;-56
2023/07/07 08:10:12;;;;;;;69.60;65.17;;;;;;;30.15;36.88;100870.08;1847361;77;25629;-57
2023/07/07 08:12:38;;;;;;;63.17;59.58;;;;;;;30.25;36.46;100870.27;1847286;77;25767;-57
2023/07/07 08:15:12;;;;;;;64.03;60.40;;;;;;;30.54;35.89;100869.05;1847743;77;29677;-57
2023/07/07 08:17:39;;;;;;;61.40;58.20;;;;;;;30.74;34.95;100874.59;1847413;76;25594;-57
2023/07/07 08:20:19;;;;;;;63.63;60.08;;;;;;;30.53;34.28;100875.25;1847414;77;25528;-56
2023/07/07 08:22:47;;;;;;;64.30;60.08;;;;;;;30.59;34.33;100878.30;1847464;76;25377;-55
2023/07/07 08:25:13;;;;;;;60.65;56.63;;;;;;;30.88;33.15;100879.04;1847573;77;25537;-56
2023/07/07 08:27:41;;;;;;;58.73;54.83;;;;;;;29.78;32.78;100654.56;1847709;76;27478;-57
2023/07/07 08:30:11;;;;;;;56.28;53.23;;;;;;;28.68;32.08;100439.27;1847668;77;25416;-57
2023/07/07 08:32:38;;;;;;;43.05;40.73;;;;;;;28.70;31.62;100387.36;1847877;77;25573;-55
2023/07/07 08:35:05;;;;;;;57.55;54.25;;;;;;;;;;1847971;77;25593;-56
2023/07/07 08:37:32;;;;;;;3.67;2.52;;;;;;;;;;1847656;77;25467;-55
2023/07/07 08:39:58;;;;;;;3.42;2.60;;;;;;;;;;1847484;76;27478;-57
2023/07/07 08:42:31;;;;;;;5.47;2.67;;;;;;;;;;1847372;76;27317;-57
2023/07/07 08:44:59;;;;;;;4.53;2.70;;;;;;;;;;1847455;76;25340;-56
2023/07/07 08:47:43;;;;;;;3.37;2.35;;;;;;;;;;1847490;77;25560;-53
2023/07/07 08:50:32;;;;;;;47.85;45.28;;;;;;;;;;1846790;76;25559;-56
2023/07/07 08:53:19;;;;;;;10.38;9.18;;;;;;;;;;1846950;77;27548;-56
2023/07/07 08:56:10;;;;;;;62.15;58.68;;;;;;;;;;1847516;76;26165;-52
2023/07/07 08:58:56;;;;;;;61.33;57.35;;;;;;;;;;1847511;77;25499;-55
2023/07/07 09:01:32;;;;;;;59.53;56.53;;;;;;;;;;1744791;82;25607;-53
2023/07/07 09:04:12;;;;;;;58.30;55.30;;;;;;;;;;1743837;82;25394;-56
2023/07/07 09:06:57;;;;;;;69.25;65.05;;;;;;;;;;1744914;82;27977;-54
2023/07/07 09:09:44;;;;;;;60.00;56.70;;;;;;;;;;1743773;79;25554;-51
2023/07/07 09:12:38;;;;;;;76.33;71.17;;;;;;;;;;1744871;81;25517;-50
2023/07/07 09:15:12;;;;;;;69.80;65.20;;;;;;;;;;1744762;82;25495;-53
2023/07/07 09:17:42;;;;;;;60.98;57.85;;;;;;;;;;1744955;82;25398;-52
2023/07/07 09:20:11;;;;;;;3.92;2.40;;;;;;;;;;1744032;81;28507;-52
2023/07/07 09:22:44;;;;;;;7.97;2.98;;;;;;;;;;1744691;82;27171;-50
2023/07/07 09:25:20;;;;;;;7.80;5.58;;;;;;;;;;1744751;82;25365;-55
2023/07/07 09:27:59;;;;;;;45.25;42.88;;;;;;;;;;1744844;82;25421;-62
2023/07/07 09:30:30;;;;;;;3.60;2.50;;;;;;;;;;1744457;80;25332;-63
2023/07/07 09:32:58;;;;;;;58.40;55.50;;;;;;;;;;1744844;82;28009;-64
2023/07/07 09:35:28;;;;;;;58.58;55.33;;;;;;;;;;1781623;77;25319;-65
2023/07/07 09:38:04;;;;;;;55.70;52.88;;;;;;;;;;1847487;76;25311;-65
2023/07/07 09:40:44;;;;;;;58.15;54.95;;;;;;;;;;1847488;77;26113;-66
2023/07/07 09:43:30;;;;;;;58.20;55.05;;;;;;;;;;1847486;77;25439;-65
2023/07/07 09:46:18;;;;;;;60.38;57.03;;;;;;;;;;1847444;77;29613;-64
2023/07/07 09:48:58;;;;;;;60.38;57.00;;;;;;;;;;1846916;76;25804;-64
2023/07/07 09:51:35;;;;;;;59.93;56.83;;;;;;;;;;1845355;76;25567;-65
2023/07/07 09:54:02;;;;;;;59.75;56.30;;;;;;;;;;1846679;76;25722;-64
2023/07/07 09:56:33;;;;;;;58.68;55.63;;;;;;;;;;1847185;76;25597;-65
2023/07/07 09:59:07;;;;;;;58.25;55.15;;;;;;;;;;1846579;76;27472;-65
2023/07/07 10:01:39;;;;;;;61.08;57.78;;;;;;;;;;1846729;77;27143;-64
2023/07/07 10:04:12;;;;;;;58.73;55.73;;;;;;;;;;1847076;77;25353;-64
2023/07/07 10:06:52;;;;;;;57.98;54.98;;;;;;;;;;1845455;76;25401;-65
2023/07/07 10:09:19;;;;;;;55.67;52.78;;;;;;;;;;1847522;76;25319;-64
2023/07/07 10:11:48;;;;;;;58.90;56.00;;;;;;;;;;1847346;77;27385;-64
2023/07/07 10:14:16;;;;;;;;;;;;;;;;;;1845410;76;25619;-65
2023/07/07 10:16:57;;;;;;;;;;;;;;;;;;1843041;77;25239;-65
2023/07/07 10:19:28;;;;;;;57.78;54.88;;;;;;;;;;1842082;77;26115;-65
2023/07/07 10:21:56;;;;;;;;;;;;;;;;;;1844683;76;25449;-66
2023/07/07 10:24:23;;;;;;;58.52;55.45;;;;;;;;;;1842122;77;27516;-64
2023/07/07 10:26:50;;;;;;;58.35;55.45;;;;;;;;;;1841807;76;25474;-64
2023/07/07 10:29:26;;;;;;;;;;;;;;;;;;1844768;77;25349;-64
2023/07/07 10:31:54;;;;;;;58.52;55.52;;;;;;;;;;1841954;77;26449;-64
2023/07/07 10:34:34;;;;;;;51.85;48.92;;;;;;;;;;1841973;77;25264;-64
2023/07/07 10:37:01;;;;;;;4.95;1.90;;;;;;;;;;1841873;77;27538;-65
2023/07/07 10:39:30;;;;;;;2.20;1.65;;;;;;;;;;1841920;76;25342;-64
2023/07/07 10:41:57;;;;;;;59.98;56.88;;;;;;;;;;1841968;77;25416;-64
2023/07/07 10:44:26;;;;;;;3.10;1.60;;;;;;;;;;1842000;77;25640;-64
2023/07/07 10:46:54;;;;;;;4.87;1.95;;;;;;;;;;1842112;77;25342;-64
2023/07/07 10:49:24;;;;;;;40.17;37.95;;;;;;;;;;1841973;77;27298;-64
2023/07/07 10:52:11;;;;;;;5.58;5.25;;;;;;;;;;1841924;76;25343;-64
2023/07/07 10:54:48;;;;;;;4.40;1.80;;;;;;;;;;1841940;77;25406;-64
2023/07/07 10:57:33;;;;;;;6.87;2.10;;;;;;;;;;1770346;80;25608;-64
2023/07/07 11:00:20;;;;;;;5.12;2.92;;;;;;;;;;1770563;81;25548;-64
2023/07/07 11:03:24;;;;;;;2.92;2.15;;;;;;;;;;1770426;81;29578;-64
2023/07/07 11:05:58;;;;;;;2.65;1.70;;;;;;;;;;1770426;81;25846;-64
2023/07/07 11:08:48;;;;;;;4.30;2.22;;;;;;;;;;1769974;81;25569;-64
2023/07/07 11:11:32;;;;;;;2.98;1.90;;;;;;;;;;1770492;81;27541;-64
2023/07/07 11:14:14;;;;;;;2.55;1.90;;;;;;;;;;1770546;78;25455;-64
2023/07/07 11:16:57;;;;;;;2.02;1.85;;;;;;;;;;1770053;79;27945;-64
2023/07/07 11:19:36;;;;;;;2.72;2.27;;;;;;;;;;1795712;78;25379;-63
2023/07/07 11:22:15;;;;;;;2.33;2.10;;;;;;;;;;1770487;81;25350;-63
2023/07/07 11:24:51;;;;;;;4.10;2.60;;;;;;;;;;1774225;80;26129;-64
2023/07/07 11:27:28;;;;;;;3.37;3.12;;;;;;;;;;1770215;80;25521;-63
2023/07/07 11:29:58;;;;;;;5.45;3.65;;;;;;;;;;1775654;80;27374;-64
2023/07/07 11:32:50;;;;;;;4.87;4.58;;;;;;;;;;1773880;80;25578;-66
2023/07/07 11:35:27;;;;;;;34.38;32.53;;;;;;;;;;1832575;77;25333;-64
2023/07/07 11:38:04;;;;;;;60.52;57.40;;;;;;;;;;1847428;76;25556;-64
2023/07/07 11:40:46;;;;;;;61.83;58.73;;;;;;;;;;1846043;76;25331;-64
2023/07/07 11:43:20;;;;;;;61.42;58.30;;;;;;;;;;1847546;77;27422;-63
2023/07/07 11:46:00;;;;;;;64.17;60.78;;;;;;;;;;1847423;76;25975;-64
2023/07/07 11:48:30;;;;;;;62.35;59.18;;;;;;;;;;1847674;76;25311;-64
2023/07/07 11:51:07;;;;;;;62.13;58.83;;;;;;;;;;1847938;76;25555;-63
2023/07/07 11:53:59;;;;;;;63.20;59.55;;;;;;;;;;1847544;77;25496;-63
2023/07/07 11:56:42;;;;;;;60.95;57.75;;;;;;;;;;1847597;77;27365;-63
2023/07/07 11:59:25;;;;;;;60.98;57.55;;;;;;;;;;1847458;77;27214;-63
2023/07/07 12:01:54;;;;;;;62.58;59.42;;;;;;;;;;1847495;76;25347;-64
2023/07/07 12:04:29;;;;;;;59.40;56.40;;;;;;;;;;1847496;76;25568;-63
2023/07/07 12:06:59;;;;;;;59.90;56.80;;;;;;;;;;1847622;76;25335;-63
2023/07/07 12:09:46;;;;;;;61.20;58.13;;;;;;;;;;1847519;76;27443;-63
2023/07/07 12:12:23;;;;;;;61.58;58.48;;;;;;;;;;1847425;76;25292;-63
2023/07/07 12:15:14;;;;;;;60.40;57.30;;;;;;;;;;1847450;77;25452;-63
2023/07/07 12:17:46;;;;;;;59.63;56.50;;;;;;;;;;1847535;77;25499;-64
2023/07/07 12:20:22;;;;;;;60.15;57.10;;;;;;;;;;1847591;77;25544;-63
2023/07/07 12:22:50;;;;;;;59.13;56.18;;;;;;;;;;1847519;76;27419;-64
2023/07/07 12:25:26;;;;;;;56.23;53.42;;;;;;;;;;1847515;77;27093;-63
2023/07/07 12:27:54;;;;;;;59.08;56.08;;;;;;;;;;1847519;77;25310;-63
2023/07/07 12:30:27;;;;;;;58.90;56.00;;;;;;;;;;1847702;77;25483;-64